sensor_id;sensor_type;location;lat;lon;timestamp;P1;durP1;ratioP1;P2;durP2;ratioP2
6610;SDS011;44111;46.692;13.664;2023-02-28T00:01:09;8.43;;;7.57;;
6610;SDS011;44111;46.692;13.664;2023-02-28T00:03:37;10.83;;;8.40;;
6610;SDS011;44111;46.692;13.664;2023-02-28T00:06:05;8.40;;;7.60;;
6610;SDS011;44111;46.692;13.664;2023-02-28T00:08:34;8.60;;;7.80;;
6610;SDS011;44111;46.692;13.664;2023-02-28T00:11:03;8.37;;;7.57;;
6610;SDS011;44111;46.692;13.664;2023-02-28T00:13:31;9.60;;;7.53;;
6610;SDS011;44111;46.692;13.664;2023-02-28T00:16:01;8.50;;;7.70;;
6610;SDS011;44111;46.692;13.664;2023-02-28T00:18:29;8.80;;;7.53;;
6610;SDS011;44111;46.692;13.664;2023-02-28T00:20:56;9.03;;;8.00;;
6610;SDS011;44111;46.692;13.664;2023-02-28T00:23:24;8.53;;;7.73;;
6610;SDS011;44111;46.692;13.664;2023-02-28T00:25:52;9.43;;;7.87;;
6610;SDS011;44111;46.692;13.664;2023-02-28T00:28:24;8.20;;;7.40;;
6610;SDS011;44111;46.692;13.664;2023-02-28T00:30:53;8.73;;;7.90;;
6610;SDS011;44111;46.692;13.664;2023-02-28T00:33:22;8.27;;;7.47;;
6610;SDS011;44111;46.692;13.664;2023-02-28T00:35:49;8.57;;;7.80;;
6610;SDS011;44111;46.692;13.664;2023-02-28T00:38:16;8.50;;;7.63;;
6610;SDS011;44111;46.692;13.664;2023-02-28T00:40:44;8.47;;;7.63;;
6610;SDS011;44111;46.692;13.664;2023-02-28T00:43:11;8.20;;;7.40;;
6610;SDS011;44111;46.692;13.664;2023-02-28T00:45:39;8.00;;;7.20;;
6610;SDS011;44111;46.692;13.664;2023-02-28T00:48:06;8.20;;;7.40;;
6610;SDS011;44111;46.692;13.664;2023-02-28T00:50:33;8.27;;;7.47;;
6610;SDS011;44111;46.692;13.664;2023-02-28T00:53:01;9.60;;;7.57;;
6610;SDS011;44111;46.692;13.664;2023-02-28T00:55:28;7.73;;;7.00;;
6610;SDS011;44111;46.692;13.664;2023-02-28T00:57:55;7.37;;;6.63;;
6610;SDS011;44111;46.692;13.664;2023-02-28T01:00:23;7.90;;;7.10;;
6610;SDS011;44111;46.692;13.664;2023-02-28T01:02:51;7.60;;;6.80;;
6610;SDS011;44111;46.692;13.664;2023-02-28T01:05:18;8.47;;;7.77;;
6610;SDS011;44111;46.692;13.664;2023-02-28T01:07:47;8.07;;;7.27;;
6610;SDS011;44111;46.692;13.664;2023-02-28T01:10:14;7.63;;;6.90;;
6610;SDS011;44111;46.692;13.664;2023-02-28T01:12:41;7.33;;;6.63;;
6610;SDS011;44111;46.692;13.664;2023-02-28T01:15:09;7.77;;;7.07;;
6610;SDS011;44111;46.692;13.664;2023-02-28T01:17:38;7.37;;;6.53;;
6610;SDS011;44111;46.692;13.664;2023-02-28T01:20:08;7.77;;;7.03;;
6610;SDS011;44111;46.692;13.664;2023-02-28T01:22:36;7.43;;;6.73;;
6610;SDS011;44111;46.692;13.664;2023-02-28T01:25:03;7.77;;;6.90;;
6610;SDS011;44111;46.692;13.664;2023-02-28T01:27:31;7.60;;;6.80;;
6610;SDS011;44111;46.692;13.664;2023-02-28T01:29:58;7.87;;;7.13;;
6610;SDS011;44111;46.692;13.664;2023-02-28T01:32:25;7.60;;;6.80;;
6610;SDS011;44111;46.692;13.664;2023-02-28T01:34:52;8.03;;;7.23;;
6610;SDS011;44111;46.692;13.664;2023-02-28T01:37:21;7.33;;;6.63;;
6610;SDS011;44111;46.692;13.664;2023-02-28T01:39:48;7.90;;;7.10;;
6610;SDS011;44111;46.692;13.664;2023-02-28T01:42:15;7.47;;;6.77;;
6610;SDS011;44111;46.692;13.664;2023-02-28T01:44:57;8.43;;;7.20;;
6610;SDS011;44111;46.692;13.664;2023-02-28T01:47:26;7.20;;;6.50;;
6610;SDS011;44111;46.692;13.664;2023-02-28T01:49:55;8.13;;;7.23;;
6610;SDS011;44111;46.692;13.664;2023-02-28T01:52:24;8.07;;;7.33;;
6610;SDS011;44111;46.692;13.664;2023-02-28T01:54:53;8.57;;;7.30;;
6610;SDS011;44111;46.692;13.664;2023-02-28T01:57:22;7.70;;;6.90;;
6610;SDS011;44111;46.692;13.664;2023-02-28T01:59:54;8.13;;;7.43;;
6610;SDS011;44111;46.692;13.664;2023-02-28T02:02:25;7.60;;;6.87;;
6610;SDS011;44111;46.692;13.664;2023-02-28T02:04:54;7.50;;;6.80;;
6610;SDS011;44111;46.692;13.664;2023-02-28T02:07:24;7.73;;;6.93;;
6610;SDS011;44111;46.692;13.664;2023-02-28T02:09:59;7.73;;;7.03;;
6610;SDS011;44111;46.692;13.664;2023-02-28T02:12:27;7.40;;;6.67;;
6610;SDS011;44111;46.692;13.664;2023-02-28T02:15:06;7.67;;;6.97;;
6610;SDS011;44111;46.692;13.664;2023-02-28T02:17:39;8.03;;;7.07;;
6610;SDS011;44111;46.692;13.664;2023-02-28T02:20:32;7.63;;;6.77;;
6610;SDS011;44111;46.692;13.664;2023-02-28T02:23:23;7.73;;;7.03;;
6610;SDS011;44111;46.692;13.664;2023-02-28T02:25:58;7.87;;;7.07;;
6610;SDS011;44111;46.692;13.664;2023-02-28T02:31:30;7.57;;;6.83;;
6610;SDS011;44111;46.692;13.664;2023-02-28T02:37:27;8.80;;;7.47;;
6610;SDS011;44111;46.692;13.664;2023-02-28T02:39:59;8.40;;;7.57;;
6610;SDS011;44111;46.692;13.664;2023-02-28T02:42:31;8.87;;;8.03;;
6610;SDS011;44111;46.692;13.664;2023-02-28T02:45:04;7.97;;;7.17;;
6610;SDS011;44111;46.692;13.664;2023-02-28T02:47:33;8.70;;;7.40;;
6610;SDS011;44111;46.692;13.664;2023-02-28T02:50:03;8.90;;;7.40;;
6610;SDS011;44111;46.692;13.664;2023-02-28T02:52:36;7.87;;;7.17;;
6610;SDS011;44111;46.692;13.664;2023-02-28T02:55:05;8.50;;;7.60;;
6610;SDS011;44111;46.692;13.664;2023-02-28T02:57:36;8.23;;;7.43;;
6610;SDS011;44111;46.692;13.664;2023-02-28T03:00:07;10.10;;;8.27;;
6610;SDS011;44111;46.692;13.664;2023-02-28T03:02:36;8.00;;;7.20;;
6610;SDS011;44111;46.692;13.664;2023-02-28T03:05:06;9.67;;;7.93;;
6610;SDS011;44111;46.692;13.664;2023-02-28T03:07:47;8.80;;;7.30;;
6610;SDS011;44111;46.692;13.664;2023-02-28T03:10:28;9.60;;;7.97;;
6610;SDS011;44111;46.692;13.664;2023-02-28T03:13:15;7.87;;;7.17;;
6610;SDS011;44111;46.692;13.664;2023-02-28T03:16:01;8.50;;;7.70;;
6610;SDS011;44111;46.692;13.664;2023-02-28T03:18:39;9.93;;;8.17;;
6610;SDS011;44111;46.692;13.664;2023-02-28T03:21:11;8.23;;;7.47;;
6610;SDS011;44111;46.692;13.664;2023-02-28T03:23:46;8.53;;;7.63;;
6610;SDS011;44111;46.692;13.664;2023-02-28T03:26:18;9.90;;;7.53;;
6610;SDS011;44111;46.692;13.664;2023-02-28T03:28:51;8.87;;;8.00;;
6610;SDS011;44111;46.692;13.664;2023-02-28T03:31:24;9.10;;;8.20;;
6610;SDS011;44111;46.692;13.664;2023-02-28T03:33:55;8.93;;;8.10;;
6610;SDS011;44111;46.692;13.664;2023-02-28T03:36:27;9.47;;;8.43;;
6610;SDS011;44111;46.692;13.664;2023-02-28T03:38:58;9.17;;;8.17;;
6610;SDS011;44111;46.692;13.664;2023-02-28T03:41:29;9.60;;;8.60;;
6610;SDS011;44111;46.692;13.664;2023-02-28T03:43:59;9.40;;;8.50;;
6610;SDS011;44111;46.692;13.664;2023-02-28T03:46:31;10.63;;;8.47;;
6610;SDS011;44111;46.692;13.664;2023-02-28T03:49:01;9.93;;;8.80;;
6610;SDS011;44111;46.692;13.664;2023-02-28T03:51:29;9.77;;;8.77;;
6610;SDS011;44111;46.692;13.664;2023-02-28T03:54:01;9.90;;;8.90;;
6610;SDS011;44111;46.692;13.664;2023-02-28T03:56:31;9.20;;;8.30;;
6610;SDS011;44111;46.692;13.664;2023-02-28T03:59:02;10.07;;;8.53;;
6610;SDS011;44111;46.692;13.664;2023-02-28T04:01:33;9.90;;;8.77;;
6610;SDS011;44111;46.692;13.664;2023-02-28T04:04:03;9.23;;;8.33;;
6610;SDS011;44111;46.692;13.664;2023-02-28T04:06:31;9.67;;;8.50;;
6610;SDS011;44111;46.692;13.664;2023-02-28T04:09:01;10.17;;;9.17;;
6610;SDS011;44111;46.692;13.664;2023-02-28T04:11:30;9.67;;;8.67;;
6610;SDS011;44111;46.692;13.664;2023-02-28T04:14:00;9.23;;;8.33;;
6610;SDS011;44111;46.692;13.664;2023-02-28T04:16:27;10.10;;;8.53;;
6610;SDS011;44111;46.692;13.664;2023-02-28T04:18:55;9.30;;;8.40;;
6610;SDS011;44111;46.692;13.664;2023-02-28T04:21:27;12.07;;;8.07;;
6610;SDS011;44111;46.692;13.664;2023-02-28T04:23:54;9.13;;;8.33;;
6610;SDS011;44111;46.692;13.664;2023-02-28T04:26:27;10.37;;;9.00;;
6610;SDS011;44111;46.692;13.664;2023-02-28T04:28:56;10.50;;;9.40;;
6610;SDS011;44111;46.692;13.664;2023-02-28T04:31:23;9.60;;;8.70;;
6610;SDS011;44111;46.692;13.664;2023-02-28T04:33:50;9.90;;;8.90;;
6610;SDS011;44111;46.692;13.664;2023-02-28T04:36:18;10.47;;;9.37;;
6610;SDS011;44111;46.692;13.664;2023-02-28T04:38:46;11.33;;;9.00;;
6610;SDS011;44111;46.692;13.664;2023-02-28T04:41:13;10.73;;;9.20;;
6610;SDS011;44111;46.692;13.664;2023-02-28T04:43:41;9.13;;;8.23;;
6610;SDS011;44111;46.692;13.664;2023-02-28T04:46:09;9.00;;;8.10;;
6610;SDS011;44111;46.692;13.664;2023-02-28T04:48:38;9.57;;;8.67;;
6610;SDS011;44111;46.692;13.664;2023-02-28T04:51:06;10.30;;;9.30;;
6610;SDS011;44111;46.692;13.664;2023-02-28T04:53:34;9.50;;;8.50;;
6610;SDS011;44111;46.692;13.664;2023-02-28T04:56:02;10.33;;;8.90;;
6610;SDS011;44111;46.692;13.664;2023-02-28T04:58:31;10.90;;;9.50;;
6610;SDS011;44111;46.692;13.664;2023-02-28T05:01:03;10.60;;;9.50;;
6610;SDS011;44111;46.692;13.664;2023-02-28T05:03:38;10.43;;;9.23;;
6610;SDS011;44111;46.692;13.664;2023-02-28T05:06:06;10.00;;;9.00;;
6610;SDS011;44111;46.692;13.664;2023-02-28T05:08:33;9.90;;;8.90;;
6610;SDS011;44111;46.692;13.664;2023-02-28T05:11:00;9.57;;;8.63;;
6610;SDS011;44111;46.692;13.664;2023-02-28T05:13:27;9.67;;;8.67;;
6610;SDS011;44111;46.692;13.664;2023-02-28T05:15:55;9.83;;;8.83;;
6610;SDS011;44111;46.692;13.664;2023-02-28T05:18:24;13.27;;;9.43;;
6610;SDS011;44111;46.692;13.664;2023-02-28T05:20:51;11.00;;;8.77;;
6610;SDS011;44111;46.692;13.664;2023-02-28T05:23:18;10.13;;;8.87;;
6610;SDS011;44111;46.692;13.664;2023-02-28T05:25:47;11.70;;;9.87;;
6610;SDS011;44111;46.692;13.664;2023-02-28T05:28:14;14.00;;;10.17;;
6610;SDS011;44111;46.692;13.664;2023-02-28T05:30:41;11.20;;;9.70;;
6610;SDS011;44111;46.692;13.664;2023-02-28T05:33:09;11.07;;;9.77;;
6610;SDS011;44111;46.692;13.664;2023-02-28T05:35:39;10.67;;;9.00;;
6610;SDS011;44111;46.692;13.664;2023-02-28T05:38:06;11.47;;;9.80;;
6610;SDS011;44111;46.692;13.664;2023-02-28T05:40:34;10.53;;;9.43;;
6610;SDS011;44111;46.692;13.664;2023-02-28T05:43:01;12.00;;;9.93;;
6610;SDS011;44111;46.692;13.664;2023-02-28T05:45:28;11.00;;;9.47;;
6610;SDS011;44111;46.692;13.664;2023-02-28T05:47:55;10.63;;;9.53;;
6610;SDS011;44111;46.692;13.664;2023-02-28T05:50:22;10.87;;;9.77;;
6610;SDS011;44111;46.692;13.664;2023-02-28T05:52:52;10.30;;;9.30;;
6610;SDS011;44111;46.692;13.664;2023-02-28T05:55:19;12.13;;;9.50;;
6610;SDS011;44111;46.692;13.664;2023-02-28T05:57:46;10.13;;;9.13;;
6610;SDS011;44111;46.692;13.664;2023-02-28T06:00:13;11.17;;;9.77;;
6610;SDS011;44111;46.692;13.664;2023-02-28T06:02:43;10.00;;;9.00;;
6610;SDS011;44111;46.692;13.664;2023-02-28T06:05:12;10.73;;;9.53;;
6610;SDS011;44111;46.692;13.664;2023-02-28T06:07:40;11.10;;;10.00;;
6610;SDS011;44111;46.692;13.664;2023-02-28T06:10:10;10.23;;;9.07;;
6610;SDS011;44111;46.692;13.664;2023-02-28T06:12:38;11.23;;;9.37;;
6610;SDS011;44111;46.692;13.664;2023-02-28T06:15:07;9.77;;;8.77;;
6610;SDS011;44111;46.692;13.664;2023-02-28T06:17:36;14.03;;;9.57;;
6610;SDS011;44111;46.692;13.664;2023-02-28T06:20:04;12.37;;;9.70;;
6610;SDS011;44111;46.692;13.664;2023-02-28T06:22:32;12.07;;;9.47;;
6610;SDS011;44111;46.692;13.664;2023-02-28T06:24:59;12.03;;;9.40;;
6610;SDS011;44111;46.692;13.664;2023-02-28T06:27:28;10.63;;;9.53;;
6610;SDS011;44111;46.692;13.664;2023-02-28T06:29:55;14.50;;;10.00;;
6610;SDS011;44111;46.692;13.664;2023-02-28T06:32:22;9.97;;;9.03;;
6610;SDS011;44111;46.692;13.664;2023-02-28T06:34:50;10.27;;;9.17;;
6610;SDS011;44111;46.692;13.664;2023-02-28T06:37:17;11.60;;;9.53;;
6610;SDS011;44111;46.692;13.664;2023-02-28T06:39:44;10.93;;;9.53;;
6610;SDS011;44111;46.692;13.664;2023-02-28T06:42:11;15.97;;;12.87;;
6610;SDS011;44111;46.692;13.664;2023-02-28T06:44:40;11.00;;;9.83;;
6610;SDS011;44111;46.692;13.664;2023-02-28T06:47:08;13.97;;;11.10;;
6610;SDS011;44111;46.692;13.664;2023-02-28T06:49:35;14.17;;;12.37;;
6610;SDS011;44111;46.692;13.664;2023-02-28T06:52:04;11.87;;;9.50;;
6610;SDS011;44111;46.692;13.664;2023-02-28T06:54:31;11.97;;;10.77;;
6610;SDS011;44111;46.692;13.664;2023-02-28T06:56:58;11.60;;;10.37;;
6610;SDS011;44111;46.692;13.664;2023-02-28T06:59:25;10.63;;;9.53;;
6610;SDS011;44111;46.692;13.664;2023-02-28T07:01:54;13.67;;;10.97;;
6610;SDS011;44111;46.692;13.664;2023-02-28T07:04:21;10.60;;;9.50;;
6610;SDS011;44111;46.692;13.664;2023-02-28T07:06:48;11.07;;;9.80;;
6610;SDS011;44111;46.692;13.664;2023-02-28T07:09:16;13.67;;;9.77;;
6610;SDS011;44111;46.692;13.664;2023-02-28T07:11:44;11.93;;;9.47;;
6610;SDS011;44111;46.692;13.664;2023-02-28T07:14:11;11.10;;;9.70;;
6610;SDS011;44111;46.692;13.664;2023-02-28T07:16:38;9.93;;;8.93;;
6610;SDS011;44111;46.692;13.664;2023-02-28T07:19:07;10.97;;;9.87;;
6610;SDS011;44111;46.692;13.664;2023-02-28T07:21:34;10.03;;;9.03;;
6610;SDS011;44111;46.692;13.664;2023-02-28T07:24:01;11.87;;;10.13;;
6610;SDS011;44111;46.692;13.664;2023-02-28T07:26:28;11.03;;;9.53;;
6610;SDS011;44111;46.692;13.664;2023-02-28T07:28:55;11.43;;;9.77;;
6610;SDS011;44111;46.692;13.664;2023-02-28T07:31:22;11.20;;;9.77;;
6610;SDS011;44111;46.692;13.664;2023-02-28T07:33:50;10.67;;;9.67;;
6610;SDS011;44111;46.692;13.664;2023-02-28T07:36:18;11.67;;;10.43;;
6610;SDS011;44111;46.692;13.664;2023-02-28T07:38:46;11.13;;;10.03;;
6610;SDS011;44111;46.692;13.664;2023-02-28T07:41:15;12.47;;;9.20;;
6610;SDS011;44111;46.692;13.664;2023-02-28T07:43:42;12.40;;;10.57;;
6610;SDS011;44111;46.692;13.664;2023-02-28T07:46:10;11.43;;;10.17;;
6610;SDS011;44111;46.692;13.664;2023-02-28T07:48:40;13.13;;;10.20;;
6610;SDS011;44111;46.692;13.664;2023-02-28T07:51:07;12.43;;;10.03;;
6610;SDS011;44111;46.692;13.664;2023-02-28T07:53:36;12.67;;;10.43;;
6610;SDS011;44111;46.692;13.664;2023-02-28T07:56:03;12.70;;;11.17;;
6610;SDS011;44111;46.692;13.664;2023-02-28T07:58:31;11.67;;;10.30;;
6610;SDS011;44111;46.692;13.664;2023-02-28T08:01:04;11.17;;;9.30;;
6610;SDS011;44111;46.692;13.664;2023-02-28T08:03:32;11.43;;;9.60;;
6610;SDS011;44111;46.692;13.664;2023-02-28T08:05:59;12.90;;;10.67;;
6610;SDS011;44111;46.692;13.664;2023-02-28T08:08:27;13.90;;;10.27;;
6610;SDS011;44111;46.692;13.664;2023-02-28T08:10:59;12.23;;;9.70;;
6610;SDS011;44111;46.692;13.664;2023-02-28T08:13:27;11.23;;;10.03;;
6610;SDS011;44111;46.692;13.664;2023-02-28T08:15:55;12.67;;;10.00;;
6610;SDS011;44111;46.692;13.664;2023-02-28T08:18:22;11.30;;;9.60;;
6610;SDS011;44111;46.692;13.664;2023-02-28T08:20:50;11.87;;;9.57;;
6610;SDS011;44111;46.692;13.664;2023-02-28T08:23:17;11.93;;;10.17;;
6610;SDS011;44111;46.692;13.664;2023-02-28T08:25:44;12.80;;;10.27;;
6610;SDS011;44111;46.692;13.664;2023-02-28T08:28:13;13.00;;;9.60;;
6610;SDS011;44111;46.692;13.664;2023-02-28T08:30:40;10.93;;;9.87;;
6610;SDS011;44111;46.692;13.664;2023-02-28T08:33:07;12.97;;;10.40;;
6610;SDS011;44111;46.692;13.664;2023-02-28T08:35:35;12.10;;;10.30;;
6610;SDS011;44111;46.692;13.664;2023-02-28T08:38:02;11.00;;;9.43;;
6610;SDS011;44111;46.692;13.664;2023-02-28T08:40:29;11.33;;;10.13;;
6610;SDS011;44111;46.692;13.664;2023-02-28T08:42:56;12.40;;;9.80;;
6610;SDS011;44111;46.692;13.664;2023-02-28T08:45:26;14.80;;;10.47;;
6610;SDS011;44111;46.692;13.664;2023-02-28T08:47:53;10.53;;;9.13;;
6610;SDS011;44111;46.692;13.664;2023-02-28T08:50:20;11.33;;;9.87;;
6610;SDS011;44111;46.692;13.664;2023-02-28T08:52:48;10.60;;;9.33;;
6610;SDS011;44111;46.692;13.664;2023-02-28T08:55:15;10.40;;;9.13;;
6610;SDS011;44111;46.692;13.664;2023-02-28T08:57:42;12.23;;;9.60;;
6610;SDS011;44111;46.692;13.664;2023-02-28T09:00:10;11.23;;;9.40;;
6610;SDS011;44111;46.692;13.664;2023-02-28T09:02:40;11.83;;;9.43;;
6610;SDS011;44111;46.692;13.664;2023-02-28T09:05:08;12.40;;;9.57;;
6610;SDS011;44111;46.692;13.664;2023-02-28T09:07:35;13.23;;;10.03;;
6610;SDS011;44111;46.692;13.664;2023-02-28T09:10:03;11.20;;;9.97;;
6610;SDS011;44111;46.692;13.664;2023-02-28T09:12:32;12.60;;;9.80;;
6610;SDS011;44111;46.692;13.664;2023-02-28T09:15:00;12.83;;;9.73;;
6610;SDS011;44111;46.692;13.664;2023-02-28T09:17:27;11.90;;;10.03;;
6610;SDS011;44111;46.692;13.664;2023-02-28T09:19:55;15.03;;;9.90;;
6610;SDS011;44111;46.692;13.664;2023-02-28T09:22:23;11.47;;;10.27;;
6610;SDS011;44111;46.692;13.664;2023-02-28T09:24:50;11.70;;;10.43;;
6610;SDS011;44111;46.692;13.664;2023-02-28T09:27:17;12.97;;;10.17;;
6610;SDS011;44111;46.692;13.664;2023-02-28T09:29:44;11.53;;;10.30;;
6610;SDS011;44111;46.692;13.664;2023-02-28T09:32:11;11.50;;;10.30;;
6610;SDS011;44111;46.692;13.664;2023-02-28T09:34:38;10.97;;;9.77;;
6610;SDS011;44111;46.692;13.664;2023-02-28T09:37:07;13.13;;;10.80;;
6610;SDS011;44111;46.692;13.664;2023-02-28T09:39:34;11.50;;;9.70;;
6610;SDS011;44111;46.692;13.664;2023-02-28T09:42:02;10.90;;;9.70;;
6610;SDS011;44111;46.692;13.664;2023-02-28T09:44:30;10.90;;;9.77;;
6610;SDS011;44111;46.692;13.664;2023-02-28T09:47:00;11.60;;;9.90;;
6610;SDS011;44111;46.692;13.664;2023-02-28T09:49:33;11.53;;;10.10;;
6610;SDS011;44111;46.692;13.664;2023-02-28T09:52:05;11.90;;;9.70;;
6610;SDS011;44111;46.692;13.664;2023-02-28T09:54:36;11.53;;;9.93;;
6610;SDS011;44111;46.692;13.664;2023-02-28T09:57:05;11.97;;;10.17;;
6610;SDS011;44111;46.692;13.664;2023-02-28T09:59:53;14.33;;;11.10;;
6610;SDS011;44111;46.692;13.664;2023-02-28T10:02:37;10.60;;;9.60;;
6610;SDS011;44111;46.692;13.664;2023-02-28T10:05:18;12.10;;;10.53;;
6610;SDS011;44111;46.692;13.664;2023-02-28T10:07:52;13.10;;;11.27;;
6610;SDS011;44111;46.692;13.664;2023-02-28T10:10:27;14.80;;;11.33;;
6610;SDS011;44111;46.692;13.664;2023-02-28T10:12:57;14.13;;;11.13;;
6610;SDS011;44111;46.692;13.664;2023-02-28T10:15:26;13.03;;;11.13;;
6610;SDS011;44111;46.692;13.664;2023-02-28T10:17:57;12.37;;;10.73;;
6610;SDS011;44111;46.692;13.664;2023-02-28T10:20:26;14.97;;;11.27;;
6610;SDS011;44111;46.692;13.664;2023-02-28T10:22:58;13.33;;;11.10;;
6610;SDS011;44111;46.692;13.664;2023-02-28T10:25:33;13.50;;;11.20;;
6610;SDS011;44111;46.692;13.664;2023-02-28T10:28:08;12.33;;;11.10;;
6610;SDS011;44111;46.692;13.664;2023-02-28T10:30:39;13.23;;;11.80;;
6610;SDS011;44111;46.692;13.664;2023-02-28T10:33:10;14.27;;;11.33;;
6610;SDS011;44111;46.692;13.664;2023-02-28T10:35:50;12.80;;;11.13;;
6610;SDS011;44111;46.692;13.664;2023-02-28T10:38:20;11.57;;;10.37;;
6610;SDS011;44111;46.692;13.664;2023-02-28T10:40:48;12.53;;;10.93;;
6610;SDS011;44111;46.692;13.664;2023-02-28T10:43:20;11.57;;;10.37;;
6610;SDS011;44111;46.692;13.664;2023-02-28T10:45:58;12.20;;;11.00;;
6610;SDS011;44111;46.692;13.664;2023-02-28T10:48:29;12.07;;;10.77;;
6610;SDS011;44111;46.692;13.664;2023-02-28T10:51:00;13.87;;;11.27;;
6610;SDS011;44111;46.692;13.664;2023-02-28T10:53:32;15.13;;;11.00;;
6610;SDS011;44111;46.692;13.664;2023-02-28T10:56:02;12.40;;;11.03;;
6610;SDS011;44111;46.692;13.664;2023-02-28T10:58:34;13.63;;;10.93;;
6610;SDS011;44111;46.692;13.664;2023-02-28T11:01:13;11.87;;;10.60;;
6610;SDS011;44111;46.692;13.664;2023-02-28T11:03:41;13.70;;;11.83;;
6610;SDS011;44111;46.692;13.664;2023-02-28T11:06:13;18.57;;;11.70;;
6610;SDS011;44111;46.692;13.664;2023-02-28T11:08:51;12.80;;;11.03;;
6610;SDS011;44111;46.692;13.664;2023-02-28T11:11:20;16.37;;;11.47;;
6610;SDS011;44111;46.692;13.664;2023-02-28T11:13:50;13.50;;;11.70;;
6610;SDS011;44111;46.692;13.664;2023-02-28T11:16:18;15.23;;;11.03;;
6610;SDS011;44111;46.692;13.664;2023-02-28T11:18:47;14.20;;;10.63;;
6610;SDS011;44111;46.692;13.664;2023-02-28T11:21:16;14.10;;;11.17;;
6610;SDS011;44111;46.692;13.664;2023-02-28T11:23:46;12.77;;;11.33;;
6610;SDS011;44111;46.692;13.664;2023-02-28T11:26:15;12.43;;;10.17;;
6610;SDS011;44111;46.692;13.664;2023-02-28T11:28:43;13.67;;;10.93;;
6610;SDS011;44111;46.692;13.664;2023-02-28T11:31:19;13.73;;;10.87;;
6610;SDS011;44111;46.692;13.664;2023-02-28T11:33:47;12.17;;;10.93;;
6610;SDS011;44111;46.692;13.664;2023-02-28T11:36:17;16.93;;;11.77;;
6610;SDS011;44111;46.692;13.664;2023-02-28T11:38:45;15.10;;;11.17;;
6610;SDS011;44111;46.692;13.664;2023-02-28T11:44:23;13.57;;;11.67;;
6610;SDS011;44111;46.692;13.664;2023-02-28T11:46:56;11.97;;;10.77;;
6610;SDS011;44111;46.692;13.664;2023-02-28T11:49:31;15.10;;;11.17;;
6610;SDS011;44111;46.692;13.664;2023-02-28T11:52:01;12.47;;;11.17;;
6610;SDS011;44111;46.692;13.664;2023-02-28T11:54:38;12.83;;;11.37;;
6610;SDS011;44111;46.692;13.664;2023-02-28T11:57:28;13.77;;;10.63;;
6610;SDS011;44111;46.692;13.664;2023-02-28T12:00:01;13.33;;;10.73;;
6610;SDS011;44111;46.692;13.664;2023-02-28T12:02:33;13.60;;;12.20;;
6610;SDS011;44111;46.692;13.664;2023-02-28T12:05:10;13.17;;;11.47;;
6610;SDS011;44111;46.692;13.664;2023-02-28T12:07:44;12.47;;;11.10;;
6610;SDS011;44111;46.692;13.664;2023-02-28T12:10:20;13.83;;;12.33;;
6610;SDS011;44111;46.692;13.664;2023-02-28T12:12:54;13.80;;;12.10;;
6610;SDS011;44111;46.692;13.664;2023-02-28T12:15:48;16.67;;;11.70;;
6610;SDS011;44111;46.692;13.664;2023-02-28T12:21:11;15.40;;;11.90;;
6610;SDS011;44111;46.692;13.664;2023-02-28T12:23:51;15.33;;;12.93;;
6610;SDS011;44111;46.692;13.664;2023-02-28T12:26:30;15.03;;;11.87;;
6610;SDS011;44111;46.692;13.664;2023-02-28T12:29:10;13.73;;;11.90;;
6610;SDS011;44111;46.692;13.664;2023-02-28T12:31:43;15.60;;;11.30;;
6610;SDS011;44111;46.692;13.664;2023-02-28T12:34:13;14.00;;;12.00;;
6610;SDS011;44111;46.692;13.664;2023-02-28T12:36:45;16.43;;;12.40;;
6610;SDS011;44111;46.692;13.664;2023-02-28T12:39:15;16.77;;;11.30;;
6610;SDS011;44111;46.692;13.664;2023-02-28T12:41:46;12.87;;;11.47;;
6610;SDS011;44111;46.692;13.664;2023-02-28T12:44:17;13.53;;;11.93;;
6610;SDS011;44111;46.692;13.664;2023-02-28T12:46:48;16.70;;;11.77;;
6610;SDS011;44111;46.692;13.664;2023-02-28T12:49:17;15.20;;;12.77;;
6610;SDS011;44111;46.692;13.664;2023-02-28T12:51:48;14.83;;;11.50;;
6610;SDS011;44111;46.692;13.664;2023-02-28T12:54:18;15.43;;;11.57;;
6610;SDS011;44111;46.692;13.664;2023-02-28T12:56:48;15.60;;;12.70;;
6610;SDS011;44111;46.692;13.664;2023-02-28T12:59:24;13.80;;;11.50;;
6610;SDS011;44111;46.692;13.664;2023-02-28T13:02:09;13.13;;;11.50;;
6610;SDS011;44111;46.692;13.664;2023-02-28T13:05:01;14.37;;;11.23;;
6610;SDS011;44111;46.692;13.664;2023-02-28T13:08:01;15.43;;;12.13;;
6610;SDS011;44111;46.692;13.664;2023-02-28T13:10:41;14.23;;;12.33;;
6610;SDS011;44111;46.692;13.664;2023-02-28T13:13:13;15.27;;;12.57;;
6610;SDS011;44111;46.692;13.664;2023-02-28T13:15:43;16.10;;;12.90;;
6610;SDS011;44111;46.692;13.664;2023-02-28T13:18:27;15.43;;;11.90;;
6610;SDS011;44111;46.692;13.664;2023-02-28T13:20:56;14.33;;;11.63;;
6610;SDS011;44111;46.692;13.664;2023-02-28T13:23:37;15.83;;;11.60;;
6610;SDS011;44111;46.692;13.664;2023-02-28T13:26:06;15.43;;;12.33;;
6610;SDS011;44111;46.692;13.664;2023-02-28T13:31:27;16.30;;;12.47;;
6610;SDS011;44111;46.692;13.664;2023-02-28T13:34:13;16.67;;;13.47;;
6610;SDS011;44111;46.692;13.664;2023-02-28T13:36:42;15.17;;;13.27;;
6610;SDS011;44111;46.692;13.664;2023-02-28T13:42:32;15.47;;;12.00;;
6610;SDS011;44111;46.692;13.664;2023-02-28T13:45:21;16.00;;;12.53;;
6610;SDS011;44111;46.692;13.664;2023-02-28T13:47:59;17.10;;;12.50;;
6610;SDS011;44111;46.692;13.664;2023-02-28T13:50:29;15.30;;;12.33;;
6610;SDS011;44111;46.692;13.664;2023-02-28T13:53:07;16.83;;;12.77;;
6610;SDS011;44111;46.692;13.664;2023-02-28T13:56:03;16.90;;;11.97;;
6610;SDS011;44111;46.692;13.664;2023-02-28T13:58:39;16.73;;;12.07;;
6610;SDS011;44111;46.692;13.664;2023-02-28T14:01:20;13.87;;;11.67;;
6610;SDS011;44111;46.692;13.664;2023-02-28T14:04:06;19.83;;;12.23;;
6610;SDS011;44111;46.692;13.664;2023-02-28T14:06:46;14.17;;;11.27;;
6610;SDS011;44111;46.692;13.664;2023-02-28T14:09:16;14.80;;;11.60;;
6610;SDS011;44111;46.692;13.664;2023-02-28T14:11:46;14.97;;;12.10;;
6610;SDS011;44111;46.692;13.664;2023-02-28T14:17:14;16.63;;;12.27;;
6610;SDS011;44111;46.692;13.664;2023-02-28T14:19:45;18.53;;;11.97;;
6610;SDS011;44111;46.692;13.664;2023-02-28T14:22:18;18.07;;;13.03;;
6610;SDS011;44111;46.692;13.664;2023-02-28T14:25:16;17.90;;;12.37;;
6610;SDS011;44111;46.692;13.664;2023-02-28T14:27:48;17.40;;;13.07;;
6610;SDS011;44111;46.692;13.664;2023-02-28T14:33:23;19.63;;;12.93;;
6610;SDS011;44111;46.692;13.664;2023-02-28T14:36:01;18.13;;;12.70;;
6610;SDS011;44111;46.692;13.664;2023-02-28T14:38:32;16.43;;;11.83;;
6610;SDS011;44111;46.692;13.664;2023-02-28T14:41:00;21.33;;;14.10;;
6610;SDS011;44111;46.692;13.664;2023-02-28T14:43:29;20.93;;;13.50;;
6610;SDS011;44111;46.692;13.664;2023-02-28T14:45:58;19.47;;;12.83;;
6610;SDS011;44111;46.692;13.664;2023-02-28T14:48:26;18.40;;;12.50;;
6610;SDS011;44111;46.692;13.664;2023-02-28T14:50:54;18.97;;;12.93;;
6610;SDS011;44111;46.692;13.664;2023-02-28T14:53:25;17.13;;;12.47;;
6610;SDS011;44111;46.692;13.664;2023-02-28T14:55:54;20.60;;;13.33;;
6610;SDS011;44111;46.692;13.664;2023-02-28T14:58:22;15.77;;;12.33;;
6610;SDS011;44111;46.692;13.664;2023-02-28T15:00:51;17.63;;;12.33;;
6610;SDS011;44111;46.692;13.664;2023-02-28T15:03:20;17.43;;;13.07;;
6610;SDS011;44111;46.692;13.664;2023-02-28T15:05:52;17.27;;;12.90;;
6610;SDS011;44111;46.692;13.664;2023-02-28T15:08:20;16.33;;;13.33;;
6610;SDS011;44111;46.692;13.664;2023-02-28T15:10:53;32.20;;;23.07;;
6610;SDS011;44111;46.692;13.664;2023-02-28T15:13:22;234.10;;;137.63;;
6610;SDS011;44111;46.692;13.664;2023-02-28T15:15:51;351.40;;;197.83;;
6610;SDS011;44111;46.692;13.664;2023-02-28T15:18:22;92.33;;;70.10;;